createdAt,value
2017-05-21T00:00:12.292Z,14.33
2017-05-21T00:01:11.968Z,14.36
2017-05-21T00:02:12.243Z,14.3
2017-05-21T00:03:12.321Z,14.29
2017-05-21T00:04:12.517Z,14.3
2017-05-21T00:05:12.222Z,14.22
2017-05-21T00:06:12.486Z,14.21
2017-05-21T00:07:12.461Z,14.22
2017-05-21T00:08:12.176Z,14.26
2017-05-21T00:09:12.144Z,14.22
2017-05-21T00:10:12.109Z,14.18
2017-05-21T00:11:12.401Z,14.1
2017-05-21T00:12:12.384Z,13.97
2017-05-21T00:13:12.352Z,13.8
2017-05-21T00:14:12.333Z,13.96
2017-05-21T00:15:12.322Z,13.81
2017-05-21T00:16:12.302Z,13.77
2017-05-21T00:17:12.315Z,13.7
2017-05-21T00:18:12.100Z,13.66
2017-05-21T00:19:11.943Z,13.66
2017-05-21T00:20:11.623Z,13.6
2017-05-21T00:21:11.902Z,13.57
2017-05-21T00:22:11.583Z,13.62
2017-05-21T00:23:12.193Z,13.57
2017-05-21T00:24:12.153Z,13.63
2017-05-21T00:25:12.141Z,13.77
2017-05-21T00:26:12.174Z,13.71
2017-05-21T00:27:12.109Z,13.77
2017-05-21T00:28:12.083Z,13.77
2017-05-21T00:29:12.060Z,13.74
2017-05-21T00:30:12.050Z,13.78
2017-05-21T00:31:11.722Z,13.7
2017-05-21T00:32:11.695Z,13.75
2017-05-21T00:33:12.002Z,13.6
2017-05-21T00:34:11.695Z,13.71
2017-05-21T00:35:11.650Z,13.75
2017-05-21T00:36:11.623Z,13.75
2017-05-21T00:37:11.924Z,13.82
2017-05-21T00:38:11.583Z,13.65
2017-05-21T00:39:11.259Z,13.62
2017-05-21T00:40:11.561Z,13.66
2017-05-21T00:41:11.523Z,13.62
2017-05-21T00:42:11.210Z,13.44
2017-05-21T00:43:11.501Z,13.29
2017-05-21T00:44:11.798Z,13.37
2017-05-21T00:45:11.764Z,13.4
2017-05-21T00:46:11.749Z,13.21
2017-05-21T00:47:11.433Z,13.33
2017-05-21T00:48:11.716Z,13.37
2017-05-21T00:49:11.392Z,13.52
2017-05-21T00:50:11.676Z,13.52
2017-05-21T00:51:11.653Z,13.52
2017-05-21T00:52:11.642Z,13.56
2017-05-21T00:53:11.610Z,13.59
2017-05-21T00:54:11.591Z,13.53
2017-05-21T00:55:10.980Z,13.6
2017-05-21T00:56:11.254Z,13.57
2017-05-21T00:57:11.550Z,13.55
2017-05-21T00:58:11.213Z,13.52
2017-05-21T00:59:11.261Z,13.42
2017-05-21T01:00:11.181Z,13.26
2017-05-21T01:01:11.463Z,13.25
2017-05-21T01:02:11.131Z,13.33
2017-05-21T01:03:11.441Z,13.22
2017-05-21T01:04:11.106Z,13.26
2017-05-21T01:05:11.390Z,13.21
2017-05-21T01:06:11.071Z,13.23
2017-05-21T01:07:11.051Z,13.31
2017-05-21T01:08:11.031Z,13.37
2017-05-21T01:09:11.311Z,13.41
2017-05-21T01:10:10.993Z,13.35
2017-05-21T01:11:11.283Z,13.48
2017-05-21T01:12:10.953Z,13.45
2017-05-21T01:13:11.232Z,13.4
2017-05-21T01:14:10.918Z,13.45
2017-05-21T01:15:10.601Z,13.42
2017-05-21T01:16:10.564Z,13.49
2017-05-21T01:17:11.171Z,13.47
2017-05-21T01:18:10.531Z,13.42
2017-05-21T01:19:11.132Z,13.47
2017-05-21T01:20:11.111Z,13.4
2017-05-21T01:21:10.805Z,13.42
2017-05-21T01:22:10.776Z,13.37
2017-05-21T01:23:10.760Z,13.42
2017-05-21T01:24:11.031Z,13.37
2017-05-21T01:25:11.074Z,13.31
2017-05-21T01:26:10.693Z,13.35
2017-05-21T01:27:10.662Z,13.37
2017-05-21T01:28:10.671Z,13.38
2017-05-21T01:29:10.942Z,13.35
2017-05-21T01:30:10.616Z,13.26
2017-05-21T01:31:10.905Z,13.26
2017-05-21T01:32:10.680Z,13.4
2017-05-21T01:33:10.349Z,13.4
2017-05-21T01:34:10.247Z,13.29
2017-05-21T01:35:10.535Z,13.31
2017-05-21T01:36:10.813Z,13.35
2017-05-21T01:37:10.783Z,13.35
2017-05-21T01:38:10.231Z,13.21
2017-05-21T01:39:10.449Z,13.25
2017-05-21T01:40:10.126Z,13.31
2017-05-21T01:41:10.709Z,13.28
2017-05-21T01:42:10.399Z,13.33
2017-05-21T01:43:10.064Z,13.33
2017-05-21T01:44:10.367Z,13.28
2017-05-21T01:45:10.645Z,13.35
2017-05-21T01:46:10.643Z,13.23
2017-05-21T01:47:10.604Z,13.26
2017-05-21T01:48:10.583Z,13.16
2017-05-21T01:49:10.560Z,13.25
2017-05-21T01:50:09.933Z,13.22
2017-05-21T01:51:10.527Z,13.23
2017-05-21T01:52:10.207Z,13.21
2017-05-21T01:53:10.489Z,13.23
2017-05-21T01:54:10.173Z,13.15
2017-05-21T01:55:10.450Z,13.22
2017-05-21T01:56:10.174Z,13.15
2017-05-21T01:57:10.103Z,13.07
2017-05-21T01:58:10.097Z,13.21
2017-05-21T01:59:09.781Z,13.16
2017-05-21T02:00:10.140Z,13.14
2017-05-21T02:01:10.034Z,13.06
2017-05-21T02:02:10.013Z,13.1
2017-05-21T02:03:10.299Z,13.04
2017-05-21T02:04:10.294Z,13.11
2017-05-21T02:05:09.950Z,13.07
2017-05-21T02:06:10.242Z,13
2017-05-21T02:07:09.912Z,13.06
2017-05-21T02:08:09.932Z,13.07
2017-05-21T02:09:09.881Z,13.07
2017-05-21T02:10:09.864Z,12.98
2017-05-21T02:11:10.162Z,12.98
2017-05-21T02:12:09.822Z,13.01
2017-05-21T02:13:09.800Z,12.98
2017-05-21T02:14:10.092Z,12.76
2017-05-21T02:15:10.069Z,12.68
2017-05-21T02:16:09.766Z,12.5
2017-05-21T02:17:10.035Z,12.21
2017-05-21T02:18:09.711Z,12.02
2017-05-21T02:19:09.999Z,11.94
2017-05-21T02:20:09.691Z,11.73
2017-05-21T02:21:09.648Z,11.72
2017-05-21T02:22:09.633Z,11.86
2017-05-21T02:23:09.942Z,11.81
2017-05-21T02:24:09.597Z,11.89
2017-05-21T02:25:09.878Z,11.91
2017-05-21T02:26:09.862Z,12.02
2017-05-21T02:27:09.858Z,12.02
2017-05-21T02:28:09.819Z,12.09
2017-05-21T02:29:09.803Z,12.16
2017-05-21T02:30:09.482Z,12.21
2017-05-21T02:31:09.464Z,12.27
2017-05-21T02:32:09.439Z,12.32
2017-05-21T02:33:09.423Z,12.37
2017-05-21T02:34:09.702Z,12.37
2017-05-21T02:35:09.684Z,12.46
2017-05-21T02:36:09.367Z,12.4
2017-05-21T02:37:09.642Z,12.46
2017-05-21T02:38:09.631Z,12.43
2017-05-21T02:39:09.310Z,12.42
2017-05-21T02:40:09.594Z,12.48
2017-05-21T02:41:09.324Z,12.48
2017-05-21T02:42:09.554Z,12.55
2017-05-21T02:43:09.552Z,12.53
2017-05-21T02:44:09.513Z,12.57
2017-05-21T02:45:09.491Z,12.57
2017-05-21T02:46:09.483Z,12.48
2017-05-21T02:47:08.847Z,12.49
2017-05-21T02:48:09.122Z,12.57
2017-05-21T02:49:09.421Z,12.55
2017-05-21T02:50:09.080Z,12.5
2017-05-21T02:51:09.372Z,12.53
2017-05-21T02:52:09.376Z,12.55
2017-05-21T02:53:09.342Z,12.6
2017-05-21T02:54:09.323Z,12.53
2017-05-21T02:55:09.304Z,12.53
2017-05-21T02:56:09.299Z,12.5
2017-05-21T02:57:08.961Z,12.6
2017-05-21T02:58:09.251Z,12.6
2017-05-21T02:59:09.228Z,12.58
2017-05-21T03:00:08.589Z,12.63
2017-05-21T03:01:08.874Z,12.53
2017-05-21T03:02:09.165Z,12.63
2017-05-21T03:03:09.152Z,12.55
2017-05-21T03:04:08.880Z,12.61
2017-05-21T03:05:08.899Z,12.5
2017-05-21T03:06:08.774Z,12.46
2017-05-21T03:07:08.776Z,12.4
2017-05-21T03:08:08.855Z,12.43
2017-05-21T03:09:09.021Z,12.32
2017-05-21T03:10:08.708Z,12.39
2017-05-21T03:11:08.684Z,12.34
2017-05-21T03:12:08.678Z,12.37
2017-05-21T03:13:08.651Z,12.37
2017-05-21T03:14:08.932Z,12.43
2017-05-21T03:15:08.712Z,12.43
2017-05-21T03:16:08.600Z,12.43
2017-05-21T03:17:08.721Z,12.49
2017-05-21T03:18:08.647Z,12.46
2017-05-21T03:19:08.841Z,12.43
2017-05-21T03:20:08.815Z,12.48
2017-05-21T03:21:08.802Z,12.43
2017-05-21T03:22:08.772Z,12.49
2017-05-21T03:23:08.761Z,12.43
2017-05-21T03:24:08.752Z,12.5
2017-05-21T03:25:08.723Z,12.42
2017-05-21T03:26:08.691Z,12.49
2017-05-21T03:27:08.670Z,12.48
2017-05-21T03:28:08.662Z,12.5
2017-05-21T03:29:08.636Z,12.49
2017-05-21T03:30:08.443Z,12.42
2017-05-21T03:31:08.606Z,12.48
2017-05-21T03:32:08.280Z,12.37
2017-05-21T03:33:08.250Z,12.39
2017-05-21T03:34:08.561Z,12.25
2017-05-21T03:35:08.531Z,12.15
2017-05-21T03:36:08.503Z,12.15
2017-05-21T03:37:08.501Z,11.98
2017-05-21T03:38:08.471Z,11.98
2017-05-21T03:39:08.452Z,12.02
2017-05-21T03:40:08.153Z,12.06
2017-05-21T03:41:08.411Z,12.07
2017-05-21T03:42:08.093Z,11.97
2017-05-21T03:43:08.369Z,11.98
2017-05-21T03:44:08.352Z,11.79
2017-05-21T03:45:08.330Z,11.84
2017-05-21T03:46:08.354Z,11.78
2017-05-21T03:47:07.993Z,11.71
2017-05-21T03:48:07.658Z,11.65
2017-05-21T03:49:08.259Z,11.56
2017-05-21T03:50:07.620Z,11.5
2017-05-21T03:51:07.593Z,11.48
2017-05-21T03:52:08.181Z,11.57
2017-05-21T03:53:07.861Z,11.68
2017-05-21T03:54:07.864Z,11.84
2017-05-21T03:55:07.832Z,11.9
2017-05-21T03:56:07.800Z,11.91
2017-05-21T03:57:08.094Z,11.81
2017-05-21T03:58:07.763Z,11.76
2017-05-21T03:59:07.747Z,11.72
2017-05-21T04:00:07.421Z,11.71
2017-05-21T04:01:08.016Z,11.71
2017-05-21T04:02:07.684Z,11.58
2017-05-21T04:03:07.666Z,11.43
2017-05-21T04:04:07.973Z,11.54
2017-05-21T04:05:07.943Z,11.47
2017-05-21T04:06:07.613Z,11.4
2017-05-21T04:07:07.891Z,11.35
2017-05-21T04:08:07.564Z,11.32
2017-05-21T04:09:07.549Z,11.21
2017-05-21T04:10:07.832Z,11.2
2017-05-21T04:11:07.514Z,11.15
2017-05-21T04:12:07.492Z,11.24
2017-05-21T04:13:07.168Z,11.17
2017-05-21T04:14:07.453Z,11.2
2017-05-21T04:15:07.434Z,11.18
2017-05-21T04:16:07.413Z,11.13
2017-05-21T04:17:07.393Z,11.24
2017-05-21T04:18:07.064Z,11.33
2017-05-21T04:19:07.659Z,11.46
2017-05-21T04:20:07.644Z,11.51
2017-05-21T04:21:07.382Z,11.56
2017-05-21T04:22:07.592Z,11.6
2017-05-21T04:23:07.577Z,11.69
2017-05-21T04:24:07.243Z,11.76
2017-05-21T04:25:07.537Z,11.61
2017-05-21T04:26:07.213Z,11.73
2017-05-21T04:27:07.501Z,11.65
2017-05-21T04:28:07.483Z,11.64
2017-05-21T04:29:07.463Z,11.43
2017-05-21T04:30:07.452Z,11.46
2017-05-21T04:31:07.453Z,11.43
2017-05-21T04:32:07.094Z,11.61
2017-05-21T04:33:07.374Z,11.66
2017-05-21T04:34:07.354Z,11.76
2017-05-21T04:35:06.794Z,11.76
2017-05-21T04:36:07.323Z,11.86
2017-05-21T04:37:07.302Z,11.9
2017-05-21T04:38:07.283Z,11.87
2017-05-21T04:39:07.274Z,11.86
2017-05-21T04:40:06.951Z,11.87
2017-05-21T04:41:07.032Z,11.91
2017-05-21T04:42:07.193Z,11.84
2017-05-21T04:43:07.193Z,11.84
2017-05-21T04:44:06.863Z,11.75
2017-05-21T04:45:06.844Z,11.73
2017-05-21T04:46:07.121Z,11.68
2017-05-21T04:47:06.901Z,11.73
2017-05-21T04:48:06.773Z,11.72
2017-05-21T04:49:06.753Z,11.81
2017-05-21T04:50:06.433Z,11.84
2017-05-21T04:51:06.722Z,11.9
2017-05-21T04:52:06.704Z,11.91
2017-05-21T04:53:06.993Z,12.02
2017-05-21T04:54:06.967Z,12.02
2017-05-21T04:55:06.942Z,11.95
2017-05-21T04:56:06.932Z,11.98
2017-05-21T04:57:06.663Z,12.03
2017-05-21T04:58:06.886Z,11.98
2017-05-21T04:59:06.881Z,12.03
2017-05-21T05:00:06.532Z,11.95
2017-05-21T05:01:06.829Z,11.98
2017-05-21T05:02:06.822Z,11.98
2017-05-21T05:03:06.234Z,12.07
2017-05-21T05:04:06.460Z,12.03
2017-05-21T05:05:06.153Z,11.91
2017-05-21T05:06:06.421Z,12.03
2017-05-21T05:07:06.392Z,12.09
2017-05-21T05:08:06.371Z,11.98
2017-05-21T05:09:06.381Z,12.21
2017-05-21T05:10:06.346Z,12.2
2017-05-21T05:11:06.323Z,12.21
2017-05-21T05:12:06.614Z,12.13
2017-05-21T05:13:06.301Z,12.07
2017-05-21T05:14:05.963Z,11.91
2017-05-21T05:15:06.551Z,12.16
2017-05-21T05:16:05.945Z,12.13
2017-05-21T05:17:06.512Z,12.17
2017-05-21T05:18:06.501Z,12.16
2017-05-21T05:19:06.482Z,12.2
2017-05-21T05:20:05.840Z,12.2
2017-05-21T05:21:06.131Z,12.05
2017-05-21T05:22:06.110Z,12.2
2017-05-21T05:23:06.100Z,12.15
2017-05-21T05:24:06.384Z,12.17
2017-05-21T05:25:06.352Z,12.16
2017-05-21T05:26:06.336Z,12.1
2017-05-21T05:27:06.322Z,12.25
2017-05-21T05:28:05.984Z,12.09
2017-05-21T05:29:06.283Z,12.21
2017-05-21T05:30:06.265Z,12.31
2017-05-21T05:31:06.245Z,12.32
2017-05-21T05:32:05.922Z,12.35
2017-05-21T05:33:05.909Z,12.45
2017-05-21T05:34:05.885Z,12.48
2017-05-21T05:35:06.168Z,12.49
2017-05-21T05:36:05.534Z,12.53
2017-05-21T05:37:05.513Z,12.55
2017-05-21T05:38:06.103Z,12.53
2017-05-21T05:39:05.777Z,12.61
2017-05-21T05:40:06.072Z,12.6
2017-05-21T05:41:05.750Z,12.55
2017-05-21T05:42:06.033Z,12.6
2017-05-21T05:43:05.994Z,12.68
2017-05-21T05:44:05.681Z,12.81
2017-05-21T05:45:05.966Z,12.76
2017-05-21T05:46:05.644Z,12.86
2017-05-21T05:47:05.673Z,12.73
2017-05-21T05:48:05.610Z,12.79
2017-05-21T05:49:05.583Z,12.96
2017-05-21T05:50:05.582Z,12.88
2017-05-21T05:51:05.543Z,12.98
2017-05-21T05:52:05.834Z,12.97
2017-05-21T05:53:05.813Z,13
2017-05-21T05:54:05.496Z,13.06
2017-05-21T05:55:05.466Z,13.11
2017-05-21T05:56:05.456Z,13.15
2017-05-21T05:57:05.732Z,13.11
2017-05-21T05:58:05.403Z,13.21
2017-05-21T05:59:05.391Z,13.22
2017-05-21T06:00:05.373Z,13.23
2017-05-21T06:01:05.357Z,13.23
2017-05-21T06:02:05.023Z,13.41
2017-05-21T06:03:05.634Z,13.41
2017-05-21T06:04:05.307Z,13.38
2017-05-21T06:05:05.277Z,13.48
2017-05-21T06:06:05.563Z,13.49
2017-05-21T06:07:05.548Z,13.37
2017-05-21T06:08:05.523Z,13.48
2017-05-21T06:09:05.500Z,13.48
2017-05-21T06:10:05.192Z,13.52
2017-05-21T06:11:05.274Z,13.4
2017-05-21T06:12:05.144Z,13.38
2017-05-21T06:13:05.243Z,13.31
2017-05-21T06:14:05.118Z,13.29
2017-05-21T06:15:05.393Z,13.38
2017-05-21T06:16:05.088Z,13.49
2017-05-21T06:17:05.064Z,13.52
2017-05-21T06:18:05.052Z,13.52
2017-05-21T06:19:05.325Z,13.63
2017-05-21T06:20:05.313Z,13.67
2017-05-21T06:21:05.281Z,13.74
2017-05-21T06:22:05.287Z,13.67
2017-05-21T06:23:05.244Z,13.85
2017-05-21T06:24:04.938Z,13.92
2017-05-21T06:25:05.219Z,13.95
2017-05-21T06:26:04.907Z,13.97
2017-05-21T06:27:04.878Z,13.93
2017-05-21T06:28:05.204Z,14.13
2017-05-21T06:29:04.973Z,14.18
2017-05-21T06:30:05.138Z,14.2
2017-05-21T06:31:05.103Z,14.13
2017-05-21T06:32:05.103Z,14.17
2017-05-21T06:33:04.767Z,14.3
2017-05-21T06:34:04.757Z,14.32
2017-05-21T06:35:04.419Z,14.47
2017-05-21T06:36:05.036Z,14.5
2017-05-21T06:37:04.687Z,14.54
2017-05-21T06:38:04.998Z,14.58
2017-05-21T06:39:04.969Z,14.69
2017-05-21T06:40:04.944Z,14.69
2017-05-21T06:41:04.925Z,14.63
2017-05-21T06:42:04.595Z,14.72
2017-05-21T06:43:04.894Z,14.7
2017-05-21T06:44:04.878Z,14.82
2017-05-21T06:45:04.550Z,15.03
2017-05-21T06:46:04.524Z,15.06
2017-05-21T06:47:04.816Z,15.12
2017-05-21T06:48:04.801Z,15.17
2017-05-21T06:49:04.475Z,15.12
2017-05-21T06:50:04.784Z,15.29
2017-05-21T06:51:04.441Z,15.31
2017-05-21T06:52:04.732Z,15.42
2017-05-21T06:53:04.715Z,15.46
2017-05-21T06:54:04.705Z,15.49
2017-05-21T06:55:04.366Z,15.6
2017-05-21T06:56:04.351Z,15.57
2017-05-21T06:57:04.334Z,15.5
2017-05-21T06:58:04.331Z,15.57
2017-05-21T06:59:04.615Z,15.46
2017-05-21T07:00:04.592Z,15.57
2017-05-21T07:01:04.583Z,15.62
2017-05-21T07:02:04.566Z,15.5
2017-05-21T07:03:04.544Z,15.5
2017-05-21T07:04:04.515Z,15.61
2017-05-21T07:05:04.512Z,15.72
2017-05-21T07:06:04.186Z,15.92
2017-05-21T07:07:04.474Z,16.01
2017-05-21T07:08:04.463Z,15.97
2017-05-21T07:09:04.435Z,16.01
2017-05-21T07:10:04.424Z,16.15
2017-05-21T07:11:03.791Z,16.13
2017-05-21T07:12:04.394Z,16.2
2017-05-21T07:13:04.374Z,16.27
2017-05-21T07:14:04.043Z,16.27
2017-05-21T07:15:03.723Z,16.36
2017-05-21T07:16:04.344Z,16.39
2017-05-21T07:17:04.311Z,16.45
2017-05-21T07:18:04.286Z,16.43
2017-05-21T07:19:03.960Z,16.57
2017-05-21T07:20:03.945Z,16.79
2017-05-21T07:21:04.238Z,16.74
2017-05-21T07:22:03.914Z,16.79
2017-05-21T07:23:03.893Z,16.72
2017-05-21T07:24:03.887Z,16.87
2017-05-21T07:25:04.176Z,16.83
2017-05-21T07:26:03.847Z,16.85
2017-05-21T07:27:03.893Z,16.96
2017-05-21T07:28:03.813Z,17
2017-05-21T07:29:03.796Z,17.11
2017-05-21T07:30:04.092Z,17.21
2017-05-21T07:31:03.763Z,17.19
2017-05-21T07:32:03.755Z,17.21
2017-05-21T07:33:03.735Z,17.18
2017-05-21T07:34:04.050Z,17.12
2017-05-21T07:35:04.000Z,17.14
2017-05-21T07:36:03.692Z,17.12
2017-05-21T07:37:03.983Z,17.16
2017-05-21T07:38:03.666Z,17.24
2017-05-21T07:39:03.354Z,17.12
2017-05-21T07:40:03.924Z,17.29
2017-05-21T07:41:03.616Z,17.36
2017-05-21T07:42:03.906Z,17.36
2017-05-21T07:43:03.572Z,17.33
2017-05-21T07:44:03.868Z,17.49
2017-05-21T07:45:03.850Z,17.15
2017-05-21T07:46:03.844Z,17.31
2017-05-21T07:47:03.947Z,17.4
2017-05-21T07:48:03.822Z,17.64
2017-05-21T07:49:03.797Z,17.67
2017-05-21T07:50:03.765Z,17.64
2017-05-21T07:51:03.570Z,17.7
2017-05-21T07:52:03.748Z,17.85
2017-05-21T07:53:03.855Z,17.89
2017-05-21T07:54:03.717Z,18.04
2017-05-21T07:55:03.382Z,18.04
2017-05-21T07:56:03.064Z,17.9
2017-05-21T07:57:03.782Z,18.11
2017-05-21T07:58:03.662Z,18.26
2017-05-21T07:59:03.634Z,18.08
2017-05-21T08:00:02.997Z,18.12
2017-05-21T08:01:03.425Z,18.23
2017-05-21T08:02:02.971Z,18.4
2017-05-21T08:03:03.251Z,18.58
2017-05-21T08:04:03.247Z,18.82
2017-05-21T08:05:03.240Z,18.97
2017-05-21T08:06:03.548Z,19.07
2017-05-21T08:07:03.292Z,19.19
2017-05-21T08:08:03.560Z,19.31
2017-05-21T08:09:03.553Z,19.38
2017-05-21T08:10:03.470Z,19.38
2017-05-21T08:11:03.472Z,19.7
2017-05-21T08:12:03.167Z,19.81
2017-05-21T08:13:03.122Z,20.06
2017-05-21T08:14:03.464Z,20.23
2017-05-21T08:15:03.152Z,20.35
2017-05-21T08:16:03.392Z,20.31
2017-05-21T08:17:03.453Z,20.17
2017-05-21T08:18:03.383Z,19.96
2017-05-21T08:19:03.134Z,20.25
2017-05-21T08:20:03.018Z,20.4
2017-05-21T08:21:03.318Z,20.48
2017-05-21T08:22:03.354Z,20.57
2017-05-21T08:23:03.302Z,20.73
2017-05-21T08:24:02.963Z,20.52
2017-05-21T08:25:03.323Z,20.35
2017-05-21T08:26:02.638Z,20.16
2017-05-21T08:27:03.234Z,20.28
2017-05-21T08:28:02.911Z,20.32
2017-05-21T08:29:02.883Z,20.57
2017-05-21T08:30:03.192Z,20.81
2017-05-21T08:31:02.876Z,21.1
2017-05-21T08:32:02.865Z,21.03
2017-05-21T08:33:02.844Z,20.79
2017-05-21T08:34:02.516Z,21.13
2017-05-21T08:35:02.510Z,21.34
2017-05-21T08:36:02.834Z,21.79
2017-05-21T08:37:03.150Z,21.97
2017-05-21T08:38:02.783Z,22.17
2017-05-21T08:39:03.092Z,22.39
2017-05-21T08:40:02.774Z,22.5
2017-05-21T08:41:03.113Z,22.45
2017-05-21T08:42:02.752Z,22.52
2017-05-21T08:43:03.043Z,22.48
2017-05-21T08:44:03.035Z,22.8
2017-05-21T08:45:03.022Z,22.66
2017-05-21T08:46:02.701Z,22.54
2017-05-21T08:47:03.001Z,22.55
2017-05-21T08:48:02.983Z,22.7
2017-05-21T08:49:02.674Z,22.66
2017-05-21T08:50:02.722Z,22.79
2017-05-21T08:51:02.983Z,22.51
2017-05-21T08:52:02.653Z,22.27
2017-05-21T08:53:02.967Z,22.35
2017-05-21T08:54:02.633Z,22.37
2017-05-21T08:55:02.942Z,22.42
2017-05-21T08:56:02.630Z,22.72
2017-05-21T08:57:02.913Z,23.12
2017-05-21T08:58:02.913Z,23.47
2017-05-21T08:59:02.913Z,23.89
2017-05-21T09:00:02.594Z,23.99
2017-05-21T09:01:02.585Z,23.82
2017-05-21T09:02:02.875Z,23.59
2017-05-21T09:03:02.885Z,23.69
2017-05-21T09:04:02.570Z,23.82
2017-05-21T09:05:02.563Z,23.73
2017-05-21T09:06:02.945Z,24.06
2017-05-21T09:07:02.553Z,24.25
2017-05-21T09:08:02.537Z,24.27
2017-05-21T09:09:02.645Z,24.27
2017-05-21T09:10:02.535Z,24.24
2017-05-21T09:11:02.824Z,23.82
2017-05-21T09:12:02.818Z,23.85
2017-05-21T09:13:02.523Z,24.33
2017-05-21T09:14:02.877Z,24.09
2017-05-21T09:15:02.824Z,23.47
2017-05-21T09:16:02.892Z,23.28
2017-05-21T09:17:02.501Z,22.91
2017-05-21T09:18:02.799Z,22.47
2017-05-21T09:19:02.794Z,22.17
2017-05-21T09:20:02.791Z,22.42
2017-05-21T09:21:02.776Z,22.37
2017-05-21T09:22:02.781Z,22.39
2017-05-21T09:23:02.783Z,22.3
2017-05-21T09:24:02.764Z,22.52
2017-05-21T09:25:02.751Z,22.51
2017-05-21T09:26:02.764Z,22.77
2017-05-21T09:27:02.458Z,23.27
2017-05-21T09:28:02.753Z,23.8
2017-05-21T09:29:02.744Z,23.54
2017-05-21T09:30:02.735Z,23.03
2017-05-21T09:31:02.724Z,23.5
2017-05-21T09:32:02.477Z,23.84
2017-05-21T09:33:02.413Z,24.24
2017-05-21T09:34:02.723Z,24.8
2017-05-21T09:35:02.713Z,25.11
2017-05-21T09:36:02.711Z,25.1
2017-05-21T09:37:02.397Z,24.51
2017-05-21T09:38:02.695Z,24.54
2017-05-21T09:39:02.694Z,24.12
2017-05-21T09:40:02.678Z,24.22
2017-05-21T09:41:02.735Z,24.65
2017-05-21T09:42:02.075Z,24.85
2017-05-21T09:43:02.675Z,25.05
2017-05-21T09:44:02.661Z,24.85
2017-05-21T09:45:02.703Z,24.82
2017-05-21T09:46:02.644Z,24.59
2017-05-21T09:47:02.654Z,23.97
2017-05-21T09:48:02.347Z,23.52
2017-05-21T09:49:02.332Z,23.45
2017-05-21T09:50:02.351Z,23.19
2017-05-21T09:51:02.321Z,23.19
2017-05-21T09:52:02.328Z,23.14
2017-05-21T09:53:02.325Z,23.24
2017-05-21T09:54:02.625Z,23.27
2017-05-21T09:55:02.649Z,23.6
2017-05-21T09:56:02.610Z,23.96
2017-05-21T09:57:02.619Z,24.17
2017-05-21T09:58:02.587Z,24.39
2017-05-21T09:59:02.294Z,23.96
2017-05-21T10:00:02.584Z,23.38
2017-05-21T10:01:02.595Z,23.33
2017-05-21T10:02:02.553Z,23.65
2017-05-21T10:03:02.563Z,24
2017-05-21T10:04:02.554Z,23.88
2017-05-21T10:05:02.556Z,23.63
2017-05-21T10:06:02.553Z,23.25
2017-05-21T10:07:02.261Z,23.25
2017-05-21T10:08:02.535Z,23.29
2017-05-21T10:09:02.525Z,23.35
2017-05-21T10:10:02.205Z,23.62
2017-05-21T10:11:02.493Z,23.59
2017-05-21T10:12:02.518Z,23.75
2017-05-21T10:13:02.177Z,23.97
2017-05-21T10:14:02.476Z,24.07
2017-05-21T10:15:02.481Z,24.07
2017-05-21T10:16:02.476Z,24.1
2017-05-21T10:17:02.466Z,24.34
2017-05-21T10:18:02.548Z,24.22
2017-05-21T10:19:02.436Z,24.17
2017-05-21T10:20:02.435Z,24.12
2017-05-21T10:21:02.438Z,23.96
2017-05-21T10:22:02.423Z,23.96
2017-05-21T10:23:02.097Z,23.97
2017-05-21T10:24:02.094Z,23.95
2017-05-21T10:25:02.397Z,23.88
2017-05-21T10:26:02.397Z,23.96
2017-05-21T10:27:02.054Z,23.95
2017-05-21T10:28:02.051Z,24.14
2017-05-21T10:29:02.417Z,24.44
2017-05-21T10:30:02.036Z,24.39
2017-05-21T10:31:02.028Z,24.49
2017-05-21T10:32:02.024Z,24.55
2017-05-21T10:33:02.303Z,24.75
2017-05-21T10:34:02.306Z,24.28
2017-05-21T10:35:02.312Z,24.14
2017-05-21T10:36:02.309Z,24.07
2017-05-21T10:37:01.954Z,23.96
2017-05-21T10:38:02.275Z,23.78
2017-05-21T10:39:02.274Z,23.81
2017-05-21T10:40:02.243Z,23.89
2017-05-21T10:41:02.246Z,24.12
2017-05-21T10:42:02.256Z,24.37
2017-05-21T10:43:02.227Z,24.28
2017-05-21T10:44:02.203Z,24.47
2017-05-21T10:45:02.196Z,24.71
2017-05-21T10:46:02.200Z,24.54
2017-05-21T10:47:02.198Z,24.84
2017-05-21T10:48:02.193Z,24.84
2017-05-21T10:49:02.156Z,24.75
2017-05-21T10:50:02.163Z,24.84
2017-05-21T10:51:02.135Z,24.84
2017-05-21T10:52:02.135Z,24.92
2017-05-21T10:53:02.147Z,24.85
2017-05-21T10:54:02.124Z,24.87
2017-05-21T10:55:02.110Z,24.59
2017-05-21T10:56:02.106Z,24.49
2017-05-21T10:57:02.106Z,24.24
2017-05-21T10:58:02.083Z,24.28
2017-05-21T10:59:02.075Z,23.82
2017-05-21T11:00:02.068Z,23.73
2017-05-21T11:01:02.079Z,23.81
2017-05-21T11:02:02.061Z,23.87
2017-05-21T11:03:02.036Z,24.24
2017-05-21T11:04:02.014Z,24.54
2017-05-21T11:05:01.700Z,24.51
2017-05-21T11:06:01.698Z,24.82
2017-05-21T11:07:01.684Z,24.9
2017-05-21T11:08:02.002Z,24.33
2017-05-21T11:09:01.696Z,23.62
2017-05-21T11:10:01.966Z,23.96
2017-05-21T11:11:01.695Z,24.37
2017-05-21T11:12:01.955Z,24.8
2017-05-21T11:13:01.951Z,24.96
2017-05-21T11:14:01.311Z,25.12
2017-05-21T11:15:01.966Z,25.44
2017-05-21T11:16:01.604Z,25.51
2017-05-21T11:17:01.642Z,25.69
2017-05-21T11:18:01.905Z,25.85
2017-05-21T11:19:01.887Z,26.08
2017-05-21T11:20:01.263Z,26.3
2017-05-21T11:21:01.865Z,26.47
2017-05-21T11:22:01.643Z,26.41
2017-05-21T11:23:02.509Z,26.24
2017-05-21T11:24:01.550Z,26.39
2017-05-21T11:25:01.825Z,26.57
2017-05-21T11:26:01.815Z,26.76
2017-05-21T11:27:01.517Z,27
2017-05-21T11:28:01.507Z,27.04
2017-05-21T11:29:01.798Z,27.15
2017-05-21T11:30:01.791Z,27.12
2017-05-21T11:31:01.786Z,27.11
2017-05-21T11:32:01.769Z,27.25
2017-05-21T11:33:01.453Z,27.25
2017-05-21T11:34:01.766Z,27.4
2017-05-21T11:35:01.465Z,27.33
2017-05-21T11:36:01.743Z,27
2017-05-21T11:37:01.735Z,26.82
2017-05-21T11:38:01.717Z,26.94
2017-05-21T11:39:01.724Z,27.13
2017-05-21T11:40:01.444Z,26.59
2017-05-21T11:41:01.714Z,26.01
2017-05-21T11:42:01.138Z,25.73
2017-05-21T11:43:01.693Z,25.49
2017-05-21T11:44:01.100Z,25.32
2017-05-21T11:45:01.358Z,24.95
2017-05-21T11:46:01.645Z,24.84
2017-05-21T11:47:01.364Z,24.75
2017-05-21T11:48:01.072Z,24.7
2017-05-21T11:49:01.634Z,24.49
2017-05-21T11:50:01.644Z,24.51
2017-05-21T11:51:01.392Z,23.92
2017-05-21T11:52:01.294Z,23.52
2017-05-21T11:53:01.682Z,23.27
2017-05-21T11:54:01.385Z,22.67
2017-05-21T11:55:01.256Z,22.61
2017-05-21T11:56:01.284Z,22.65
2017-05-21T11:57:01.245Z,22.72
2017-05-21T11:58:01.554Z,22.94
2017-05-21T11:59:01.558Z,23.25
2017-05-21T12:00:01.252Z,23.51
2017-05-21T12:01:01.596Z,23.89
2017-05-21T12:02:01.526Z,24.34
2017-05-21T12:03:01.174Z,24.65
2017-05-21T12:04:01.477Z,25.03
2017-05-21T12:05:01.173Z,25.1
2017-05-21T12:06:01.514Z,24.84
2017-05-21T12:07:01.134Z,24.75
2017-05-21T12:08:01.454Z,24.36
2017-05-21T12:09:01.135Z,23.69
2017-05-21T12:10:01.120Z,23.45
2017-05-21T12:11:01.112Z,23.52
2017-05-21T12:12:01.404Z,23.7
2017-05-21T12:13:01.104Z,23.8
2017-05-21T12:14:01.075Z,23.82
2017-05-21T12:15:01.367Z,23.51
2017-05-21T12:16:01.366Z,23.66
2017-05-21T12:17:01.343Z,23.28
2017-05-21T12:18:01.037Z,23.24
2017-05-21T12:19:00.709Z,23.32
2017-05-21T12:20:01.011Z,23.32
2017-05-21T12:21:01.322Z,23.42
2017-05-21T12:22:01.004Z,23.27
2017-05-21T12:23:00.981Z,23.21
2017-05-21T12:24:00.974Z,23.32
2017-05-21T12:25:01.295Z,23.06
2017-05-21T12:26:00.952Z,22.69
2017-05-21T12:27:00.945Z,22.61
2017-05-21T12:28:00.951Z,22.58
2017-05-21T12:29:00.912Z,22.2
2017-05-21T12:30:01.232Z,22.36
2017-05-21T12:31:00.899Z,22.3
2017-05-21T12:32:01.266Z,22.27
2017-05-21T12:33:01.204Z,22.22
2017-05-21T12:34:01.174Z,22.48
2017-05-21T12:35:00.544Z,22.36
2017-05-21T12:36:01.153Z,22.51
2017-05-21T12:37:01.122Z,22.8
2017-05-21T12:38:00.879Z,22.69
2017-05-21T12:39:01.115Z,22.99
2017-05-21T12:40:01.106Z,23.4
2017-05-21T12:41:00.773Z,23.57
2017-05-21T12:42:01.208Z,23.25
2017-05-21T12:43:00.769Z,23.28
2017-05-21T12:44:00.798Z,23.33
2017-05-21T12:45:00.734Z,23.35
2017-05-21T12:46:01.112Z,23.06
2017-05-21T12:47:00.702Z,22.87
2017-05-21T12:48:01.060Z,22.95
2017-05-21T12:49:00.996Z,23.04
2017-05-21T12:50:01.049Z,22.94
2017-05-21T12:51:00.972Z,22.91
2017-05-21T12:52:00.956Z,23.09
2017-05-21T12:53:00.661Z,23.28
2017-05-21T12:54:00.633Z,23.24
2017-05-21T12:55:01.006Z,23.02